sensor_id;sensor_type;location;lat;lon;timestamp;P1;durP1;ratioP1;P2;durP2;ratioP2
29954;SDS011;68448;51.188;6.868;2024-02-15T00:01:48;15.23;;;6.47;;
29954;SDS011;68448;51.188;6.868;2024-02-15T00:04:15;16.13;;;7.10;;
29954;SDS011;68448;51.188;6.868;2024-02-15T00:06:42;8.30;;;6.00;;
29954;SDS011;68448;51.188;6.868;2024-02-15T00:09:09;11.73;;;7.33;;
29954;SDS011;68448;51.188;6.868;2024-02-15T00:11:38;14.20;;;6.70;;
29954;SDS011;68448;51.188;6.868;2024-02-15T00:14:05;12.13;;;6.90;;
29954;SDS011;68448;51.188;6.868;2024-02-15T00:16:33;14.50;;;6.47;;
29954;SDS011;68448;51.188;6.868;2024-02-15T00:19:00;18.93;;;6.50;;
29954;SDS011;68448;51.188;6.868;2024-02-15T00:21:28;9.70;;;7.10;;
29954;SDS011;68448;51.188;6.868;2024-02-15T00:23:55;18.73;;;7.70;;
29954;SDS011;68448;51.188;6.868;2024-02-15T00:26:22;12.50;;;6.70;;
29954;SDS011;68448;51.188;6.868;2024-02-15T00:28:50;10.70;;;6.40;;
29954;SDS011;68448;51.188;6.868;2024-02-15T00:31:18;11.33;;;7.17;;
29954;SDS011;68448;51.188;6.868;2024-02-15T00:33:45;18.00;;;7.83;;
29954;SDS011;68448;51.188;6.868;2024-02-15T00:36:13;15.87;;;7.90;;
29954;SDS011;68448;51.188;6.868;2024-02-15T00:38:40;10.37;;;7.33;;
29954;SDS011;68448;51.188;6.868;2024-02-15T00:41:08;9.87;;;6.70;;
29954;SDS011;68448;51.188;6.868;2024-02-15T00:43:35;11.97;;;7.37;;
29954;SDS011;68448;51.188;6.868;2024-02-15T00:46:03;23.93;;;8.80;;
29954;SDS011;68448;51.188;6.868;2024-02-15T00:48:31;13.10;;;7.90;;
29954;SDS011;68448;51.188;6.868;2024-02-15T00:50:58;11.27;;;7.77;;
29954;SDS011;68448;51.188;6.868;2024-02-15T00:53:26;16.27;;;8.47;;
29954;SDS011;68448;51.188;6.868;2024-02-15T00:55:53;16.10;;;7.90;;
29954;SDS011;68448;51.188;6.868;2024-02-15T00:58:20;12.10;;;7.40;;
29954;SDS011;68448;51.188;6.868;2024-02-15T01:00:48;16.53;;;8.03;;
29954;SDS011;68448;51.188;6.868;2024-02-15T01:03:16;13.77;;;8.87;;
29954;SDS011;68448;51.188;6.868;2024-02-15T01:05:44;12.80;;;8.30;;
29954;SDS011;68448;51.188;6.868;2024-02-15T01:08:11;12.37;;;7.50;;
29954;SDS011;68448;51.188;6.868;2024-02-15T01:10:38;19.03;;;6.80;;
29954;SDS011;68448;51.188;6.868;2024-02-15T01:13:05;12.50;;;7.37;;
29954;SDS011;68448;51.188;6.868;2024-02-15T01:15:33;10.23;;;6.70;;
29954;SDS011;68448;51.188;6.868;2024-02-15T01:18:00;13.40;;;7.07;;
29954;SDS011;68448;51.188;6.868;2024-02-15T01:20:29;14.60;;;8.30;;
29954;SDS011;68448;51.188;6.868;2024-02-15T01:22:56;15.83;;;7.83;;
29954;SDS011;68448;51.188;6.868;2024-02-15T01:25:23;15.47;;;8.27;;
29954;SDS011;68448;51.188;6.868;2024-02-15T01:27:50;11.87;;;7.30;;
29954;SDS011;68448;51.188;6.868;2024-02-15T01:30:18;13.23;;;7.10;;
29954;SDS011;68448;51.188;6.868;2024-02-15T01:32:48;16.63;;;8.17;;
29954;SDS011;68448;51.188;6.868;2024-02-15T01:35:15;12.50;;;7.27;;
29954;SDS011;68448;51.188;6.868;2024-02-15T01:37:44;15.57;;;8.57;;
29954;SDS011;68448;51.188;6.868;2024-02-15T01:40:12;13.50;;;7.00;;
29954;SDS011;68448;51.188;6.868;2024-02-15T01:42:39;12.37;;;6.90;;
29954;SDS011;68448;51.188;6.868;2024-02-15T01:45:07;13.07;;;7.70;;
29954;SDS011;68448;51.188;6.868;2024-02-15T01:47:34;12.20;;;7.87;;
29954;SDS011;68448;51.188;6.868;2024-02-15T01:50:02;13.33;;;7.60;;
29954;SDS011;68448;51.188;6.868;2024-02-15T01:52:29;13.53;;;8.30;;
29954;SDS011;68448;51.188;6.868;2024-02-15T01:54:58;13.47;;;8.40;;
29954;SDS011;68448;51.188;6.868;2024-02-15T01:57:27;13.30;;;7.77;;
29954;SDS011;68448;51.188;6.868;2024-02-15T01:59:54;13.57;;;8.90;;
29954;SDS011;68448;51.188;6.868;2024-02-15T02:02:22;16.33;;;7.83;;
29954;SDS011;68448;51.188;6.868;2024-02-15T02:04:49;14.00;;;7.93;;
29954;SDS011;68448;51.188;6.868;2024-02-15T02:07:17;19.03;;;7.40;;
29954;SDS011;68448;51.188;6.868;2024-02-15T02:09:45;12.90;;;8.27;;
29954;SDS011;68448;51.188;6.868;2024-02-15T02:12:14;14.20;;;8.73;;
29954;SDS011;68448;51.188;6.868;2024-02-15T02:14:41;14.90;;;8.20;;
29954;SDS011;68448;51.188;6.868;2024-02-15T02:17:12;13.93;;;7.33;;
29954;SDS011;68448;51.188;6.868;2024-02-15T02:19:39;16.40;;;8.13;;
29954;SDS011;68448;51.188;6.868;2024-02-15T02:22:07;11.03;;;8.03;;
29954;SDS011;68448;51.188;6.868;2024-02-15T02:24:36;16.27;;;9.37;;
29954;SDS011;68448;51.188;6.868;2024-02-15T02:27:08;19.10;;;8.43;;
29954;SDS011;68448;51.188;6.868;2024-02-15T02:29:36;19.93;;;8.83;;
29954;SDS011;68448;51.188;6.868;2024-02-15T02:32:08;18.27;;;9.20;;
29954;SDS011;68448;51.188;6.868;2024-02-15T02:34:35;19.10;;;10.20;;
29954;SDS011;68448;51.188;6.868;2024-02-15T02:37:03;18.37;;;8.53;;
29954;SDS011;68448;51.188;6.868;2024-02-15T02:39:30;14.30;;;7.73;;
29954;SDS011;68448;51.188;6.868;2024-02-15T02:41:58;17.57;;;9.47;;
29954;SDS011;68448;51.188;6.868;2024-02-15T02:44:27;23.70;;;8.30;;
29954;SDS011;68448;51.188;6.868;2024-02-15T02:46:54;20.70;;;10.43;;
29954;SDS011;68448;51.188;6.868;2024-02-15T02:49:21;17.70;;;9.00;;
29954;SDS011;68448;51.188;6.868;2024-02-15T02:51:48;24.17;;;10.10;;
29954;SDS011;68448;51.188;6.868;2024-02-15T02:54:16;16.03;;;8.90;;
29954;SDS011;68448;51.188;6.868;2024-02-15T02:56:43;18.43;;;9.10;;
29954;SDS011;68448;51.188;6.868;2024-02-15T02:59:10;17.73;;;10.13;;
29954;SDS011;68448;51.188;6.868;2024-02-15T03:01:38;27.20;;;10.93;;
29954;SDS011;68448;51.188;6.868;2024-02-15T03:04:06;15.47;;;9.10;;
29954;SDS011;68448;51.188;6.868;2024-02-15T03:06:33;14.67;;;8.47;;
29954;SDS011;68448;51.188;6.868;2024-02-15T03:09:00;19.60;;;9.53;;
29954;SDS011;68448;51.188;6.868;2024-02-15T03:11:27;16.90;;;8.73;;
29954;SDS011;68448;51.188;6.868;2024-02-15T03:13:55;17.37;;;8.67;;
29954;SDS011;68448;51.188;6.868;2024-02-15T03:16:22;12.03;;;7.60;;
29954;SDS011;68448;51.188;6.868;2024-02-15T03:18:51;21.20;;;8.77;;
29954;SDS011;68448;51.188;6.868;2024-02-15T03:21:18;17.13;;;9.70;;
29954;SDS011;68448;51.188;6.868;2024-02-15T03:23:45;11.73;;;8.40;;
29954;SDS011;68448;51.188;6.868;2024-02-15T03:26:12;13.67;;;8.03;;
29954;SDS011;68448;51.188;6.868;2024-02-15T03:28:40;12.90;;;7.50;;
29954;SDS011;68448;51.188;6.868;2024-02-15T03:31:08;12.90;;;8.40;;
29954;SDS011;68448;51.188;6.868;2024-02-15T03:33:35;13.23;;;8.07;;
29954;SDS011;68448;51.188;6.868;2024-02-15T03:36:04;13.53;;;8.63;;
29954;SDS011;68448;51.188;6.868;2024-02-15T03:38:32;12.20;;;8.53;;
29954;SDS011;68448;51.188;6.868;2024-02-15T03:40:59;25.47;;;8.53;;
29954;SDS011;68448;51.188;6.868;2024-02-15T03:43:26;14.27;;;8.80;;
29954;SDS011;68448;51.188;6.868;2024-02-15T03:45:53;9.83;;;7.67;;
29954;SDS011;68448;51.188;6.868;2024-02-15T03:48:20;15.17;;;7.33;;
29954;SDS011;68448;51.188;6.868;2024-02-15T03:50:47;12.57;;;7.13;;
29954;SDS011;68448;51.188;6.868;2024-02-15T03:53:16;12.47;;;7.80;;
29954;SDS011;68448;51.188;6.868;2024-02-15T03:55:43;14.80;;;8.10;;
29954;SDS011;68448;51.188;6.868;2024-02-15T03:58:11;11.97;;;7.37;;
29954;SDS011;68448;51.188;6.868;2024-02-15T04:00:38;12.23;;;7.13;;
29954;SDS011;68448;51.188;6.868;2024-02-15T04:03:05;11.83;;;6.40;;
29954;SDS011;68448;51.188;6.868;2024-02-15T04:05:32;13.73;;;7.07;;
29954;SDS011;68448;51.188;6.868;2024-02-15T04:08:00;13.67;;;6.50;;
29954;SDS011;68448;51.188;6.868;2024-02-15T04:10:28;10.67;;;6.40;;
29954;SDS011;68448;51.188;6.868;2024-02-15T04:12:55;13.07;;;6.30;;
29954;SDS011;68448;51.188;6.868;2024-02-15T04:15:23;14.50;;;7.53;;
29954;SDS011;68448;51.188;6.868;2024-02-15T04:17:50;13.17;;;6.30;;
29954;SDS011;68448;51.188;6.868;2024-02-15T04:20:17;8.97;;;6.40;;
29954;SDS011;68448;51.188;6.868;2024-02-15T04:22:45;8.00;;;6.13;;
29954;SDS011;68448;51.188;6.868;2024-02-15T04:25:12;8.30;;;6.03;;
29954;SDS011;68448;51.188;6.868;2024-02-15T04:27:40;20.13;;;6.80;;
29954;SDS011;68448;51.188;6.868;2024-02-15T04:30:07;9.67;;;6.20;;
29954;SDS011;68448;51.188;6.868;2024-02-15T04:32:35;9.30;;;6.03;;
29954;SDS011;68448;51.188;6.868;2024-02-15T04:35:03;9.47;;;6.43;;
29954;SDS011;68448;51.188;6.868;2024-02-15T04:37:31;9.50;;;6.83;;
29954;SDS011;68448;51.188;6.868;2024-02-15T04:39:59;8.33;;;5.80;;
29954;SDS011;68448;51.188;6.868;2024-02-15T04:42:26;8.83;;;5.90;;
29954;SDS011;68448;51.188;6.868;2024-02-15T04:44:54;8.27;;;6.03;;
29954;SDS011;68448;51.188;6.868;2024-02-15T04:47:22;12.03;;;6.53;;
29954;SDS011;68448;51.188;6.868;2024-02-15T04:49:49;12.13;;;6.00;;
29954;SDS011;68448;51.188;6.868;2024-02-15T04:52:16;11.83;;;6.00;;
29954;SDS011;68448;51.188;6.868;2024-02-15T04:54:44;10.60;;;5.90;;
29954;SDS011;68448;51.188;6.868;2024-02-15T04:57:12;10.47;;;6.40;;
29954;SDS011;68448;51.188;6.868;2024-02-15T04:59:39;10.80;;;5.90;;
29954;SDS011;68448;51.188;6.868;2024-02-15T05:02:08;12.60;;;5.80;;
29954;SDS011;68448;51.188;6.868;2024-02-15T05:04:36;10.00;;;6.20;;
29954;SDS011;68448;51.188;6.868;2024-02-15T05:07:03;7.87;;;5.47;;
29954;SDS011;68448;51.188;6.868;2024-02-15T05:09:30;11.60;;;6.87;;
29954;SDS011;68448;51.188;6.868;2024-02-15T05:11:59;9.60;;;5.87;;
29954;SDS011;68448;51.188;6.868;2024-02-15T05:14:26;8.63;;;5.37;;
29954;SDS011;68448;51.188;6.868;2024-02-15T05:16:54;10.73;;;6.10;;
29954;SDS011;68448;51.188;6.868;2024-02-15T05:19:22;11.90;;;6.70;;
29954;SDS011;68448;51.188;6.868;2024-02-15T05:21:50;9.57;;;5.77;;
29954;SDS011;68448;51.188;6.868;2024-02-15T05:24:17;10.57;;;5.50;;
29954;SDS011;68448;51.188;6.868;2024-02-15T05:26:44;8.37;;;5.17;;
29954;SDS011;68448;51.188;6.868;2024-02-15T05:29:12;8.30;;;5.70;;
29954;SDS011;68448;51.188;6.868;2024-02-15T05:31:40;6.63;;;5.33;;
29954;SDS011;68448;51.188;6.868;2024-02-15T05:34:07;12.00;;;6.17;;
29954;SDS011;68448;51.188;6.868;2024-02-15T05:36:36;11.83;;;6.00;;
29954;SDS011;68448;51.188;6.868;2024-02-15T05:39:04;15.23;;;6.53;;
29954;SDS011;68448;51.188;6.868;2024-02-15T05:41:31;9.80;;;5.60;;
29954;SDS011;68448;51.188;6.868;2024-02-15T05:43:58;12.23;;;6.20;;
29954;SDS011;68448;51.188;6.868;2024-02-15T05:46:26;10.70;;;6.10;;
29954;SDS011;68448;51.188;6.868;2024-02-15T05:48:53;10.73;;;6.20;;
29954;SDS011;68448;51.188;6.868;2024-02-15T05:51:21;9.73;;;6.10;;
29954;SDS011;68448;51.188;6.868;2024-02-15T05:53:50;13.77;;;5.40;;
29954;SDS011;68448;51.188;6.868;2024-02-15T05:56:18;12.07;;;6.00;;
29954;SDS011;68448;51.188;6.868;2024-02-15T05:58:45;8.70;;;5.60;;
29954;SDS011;68448;51.188;6.868;2024-02-15T06:01:12;9.03;;;5.70;;
29954;SDS011;68448;51.188;6.868;2024-02-15T06:03:40;10.40;;;5.97;;
29954;SDS011;68448;51.188;6.868;2024-02-15T06:06:07;12.13;;;5.70;;
29954;SDS011;68448;51.188;6.868;2024-02-15T06:08:35;9.77;;;5.70;;
29954;SDS011;68448;51.188;6.868;2024-02-15T06:11:04;8.30;;;5.77;;
29954;SDS011;68448;51.188;6.868;2024-02-15T06:13:32;14.97;;;6.00;;
29954;SDS011;68448;51.188;6.868;2024-02-15T06:15:59;13.13;;;6.00;;
29954;SDS011;68448;51.188;6.868;2024-02-15T06:18:27;8.30;;;6.10;;
29954;SDS011;68448;51.188;6.868;2024-02-15T06:20:55;10.60;;;6.20;;
29954;SDS011;68448;51.188;6.868;2024-02-15T06:23:23;11.73;;;5.87;;
29954;SDS011;68448;51.188;6.868;2024-02-15T06:25:51;8.07;;;5.70;;
29954;SDS011;68448;51.188;6.868;2024-02-15T06:28:19;9.23;;;6.00;;
29954;SDS011;68448;51.188;6.868;2024-02-15T06:30:46;11.77;;;6.07;;
29954;SDS011;68448;51.188;6.868;2024-02-15T06:33:13;9.70;;;5.70;;
29954;SDS011;68448;51.188;6.868;2024-02-15T06:35:41;11.60;;;6.33;;
29954;SDS011;68448;51.188;6.868;2024-02-15T06:38:08;13.63;;;6.63;;
29954;SDS011;68448;51.188;6.868;2024-02-15T06:40:35;17.27;;;7.77;;
29954;SDS011;68448;51.188;6.868;2024-02-15T06:43:03;18.20;;;7.10;;
29954;SDS011;68448;51.188;6.868;2024-02-15T06:45:31;13.27;;;8.20;;
29954;SDS011;68448;51.188;6.868;2024-02-15T06:47:58;10.47;;;6.63;;
29954;SDS011;68448;51.188;6.868;2024-02-15T06:50:26;10.07;;;7.17;;
29954;SDS011;68448;51.188;6.868;2024-02-15T06:52:53;11.50;;;7.03;;
29954;SDS011;68448;51.188;6.868;2024-02-15T06:55:21;15.97;;;7.20;;
29954;SDS011;68448;51.188;6.868;2024-02-15T06:57:48;12.13;;;6.67;;
29954;SDS011;68448;51.188;6.868;2024-02-15T07:00:15;10.60;;;7.27;;
29954;SDS011;68448;51.188;6.868;2024-02-15T07:02:44;12.00;;;7.27;;
29954;SDS011;68448;51.188;6.868;2024-02-15T07:05:12;10.30;;;6.17;;
29954;SDS011;68448;51.188;6.868;2024-02-15T07:07:39;10.03;;;6.70;;
29954;SDS011;68448;51.188;6.868;2024-02-15T07:10:06;11.40;;;7.40;;
29954;SDS011;68448;51.188;6.868;2024-02-15T07:12:34;13.93;;;6.90;;
29954;SDS011;68448;51.188;6.868;2024-02-15T07:15:01;13.23;;;7.50;;
29954;SDS011;68448;51.188;6.868;2024-02-15T07:17:29;13.57;;;6.97;;
29954;SDS011;68448;51.188;6.868;2024-02-15T07:20:02;13.70;;;7.13;;
29954;SDS011;68448;51.188;6.868;2024-02-15T07:22:30;13.37;;;6.63;;
29954;SDS011;68448;51.188;6.868;2024-02-15T07:24:57;14.33;;;6.53;;
29954;SDS011;68448;51.188;6.868;2024-02-15T07:27:24;11.77;;;6.47;;
29954;SDS011;68448;51.188;6.868;2024-02-15T07:29:51;11.83;;;6.70;;
29954;SDS011;68448;51.188;6.868;2024-02-15T07:32:18;16.47;;;6.77;;
29954;SDS011;68448;51.188;6.868;2024-02-15T07:34:46;9.73;;;6.87;;
29954;SDS011;68448;51.188;6.868;2024-02-15T07:37:14;14.37;;;6.90;;
29954;SDS011;68448;51.188;6.868;2024-02-15T07:39:41;9.97;;;6.47;;
29954;SDS011;68448;51.188;6.868;2024-02-15T07:42:08;9.40;;;6.33;;
29954;SDS011;68448;51.188;6.868;2024-02-15T07:44:36;13.13;;;6.50;;
29954;SDS011;68448;51.188;6.868;2024-02-15T07:47:03;15.10;;;6.90;;
29954;SDS011;68448;51.188;6.868;2024-02-15T07:49:30;11.07;;;6.90;;
29954;SDS011;68448;51.188;6.868;2024-02-15T07:51:58;9.87;;;7.70;;
29954;SDS011;68448;51.188;6.868;2024-02-15T07:54:26;12.63;;;5.37;;
29954;SDS011;68448;51.188;6.868;2024-02-15T07:56:54;15.83;;;6.50;;
29954;SDS011;68448;51.188;6.868;2024-02-15T07:59:21;15.90;;;7.90;;
29954;SDS011;68448;51.188;6.868;2024-02-15T08:01:48;20.63;;;6.90;;
29954;SDS011;68448;51.188;6.868;2024-02-15T08:04:15;18.30;;;7.50;;
29954;SDS011;68448;51.188;6.868;2024-02-15T08:06:43;7.97;;;6.17;;
29954;SDS011;68448;51.188;6.868;2024-02-15T08:09:11;12.57;;;6.77;;
29954;SDS011;68448;51.188;6.868;2024-02-15T08:11:40;14.10;;;7.23;;
29954;SDS011;68448;51.188;6.868;2024-02-15T08:14:07;17.27;;;7.10;;
29954;SDS011;68448;51.188;6.868;2024-02-15T08:16:39;15.00;;;6.67;;
29954;SDS011;68448;51.188;6.868;2024-02-15T08:19:07;13.20;;;7.10;;
29954;SDS011;68448;51.188;6.868;2024-02-15T08:21:34;13.93;;;6.97;;
29954;SDS011;68448;51.188;6.868;2024-02-15T08:24:02;16.83;;;7.10;;
29954;SDS011;68448;51.188;6.868;2024-02-15T08:26:29;15.00;;;7.47;;
29954;SDS011;68448;51.188;6.868;2024-02-15T08:28:57;17.20;;;6.60;;
29954;SDS011;68448;51.188;6.868;2024-02-15T08:31:25;12.87;;;6.67;;
29954;SDS011;68448;51.188;6.868;2024-02-15T08:33:52;16.03;;;6.30;;
29954;SDS011;68448;51.188;6.868;2024-02-15T08:36:19;13.50;;;6.40;;
29954;SDS011;68448;51.188;6.868;2024-02-15T08:38:46;12.70;;;6.10;;
29954;SDS011;68448;51.188;6.868;2024-02-15T08:41:14;14.20;;;5.90;;
29954;SDS011;68448;51.188;6.868;2024-02-15T08:43:41;14.27;;;6.60;;
29954;SDS011;68448;51.188;6.868;2024-02-15T08:46:09;10.20;;;6.10;;
29954;SDS011;68448;51.188;6.868;2024-02-15T08:48:37;21.90;;;7.40;;
29954;SDS011;68448;51.188;6.868;2024-02-15T08:51:04;19.07;;;5.77;;
29954;SDS011;68448;51.188;6.868;2024-02-15T08:53:32;14.50;;;5.73;;
29954;SDS011;68448;51.188;6.868;2024-02-15T08:56:00;12.63;;;5.53;;
29954;SDS011;68448;51.188;6.868;2024-02-15T08:58:27;12.40;;;5.00;;
29954;SDS011;68448;51.188;6.868;2024-02-15T09:00:55;9.60;;;5.47;;
29954;SDS011;68448;51.188;6.868;2024-02-15T09:03:23;8.57;;;5.13;;
29954;SDS011;68448;51.188;6.868;2024-02-15T09:05:51;12.20;;;5.33;;
29954;SDS011;68448;51.188;6.868;2024-02-15T09:08:18;12.90;;;5.37;;
29954;SDS011;68448;51.188;6.868;2024-02-15T09:10:46;16.57;;;6.37;;
29954;SDS011;68448;51.188;6.868;2024-02-15T09:13:13;12.53;;;5.70;;
29954;SDS011;68448;51.188;6.868;2024-02-15T09:15:40;11.67;;;5.43;;
29954;SDS011;68448;51.188;6.868;2024-02-15T09:18:07;7.43;;;5.10;;
29954;SDS011;68448;51.188;6.868;2024-02-15T09:20:36;15.33;;;5.10;;
29954;SDS011;68448;51.188;6.868;2024-02-15T09:23:03;8.30;;;4.60;;
29954;SDS011;68448;51.188;6.868;2024-02-15T09:25:34;11.10;;;4.73;;
29954;SDS011;68448;51.188;6.868;2024-02-15T09:28:02;19.83;;;6.10;;
29954;SDS011;68448;51.188;6.868;2024-02-15T09:30:29;11.10;;;5.17;;
29954;SDS011;68448;51.188;6.868;2024-02-15T09:32:56;11.67;;;5.10;;
29954;SDS011;68448;51.188;6.868;2024-02-15T09:35:24;7.37;;;4.40;;
29954;SDS011;68448;51.188;6.868;2024-02-15T09:37:52;11.63;;;5.50;;
29954;SDS011;68448;51.188;6.868;2024-02-15T09:40:19;8.17;;;4.30;;
29954;SDS011;68448;51.188;6.868;2024-02-15T09:42:47;9.17;;;4.60;;
29954;SDS011;68448;51.188;6.868;2024-02-15T09:45:14;7.93;;;4.87;;
29954;SDS011;68448;51.188;6.868;2024-02-15T09:47:42;9.43;;;5.37;;
29954;SDS011;68448;51.188;6.868;2024-02-15T09:50:10;11.03;;;5.43;;
29954;SDS011;68448;51.188;6.868;2024-02-15T09:52:38;10.23;;;4.47;;
29954;SDS011;68448;51.188;6.868;2024-02-15T09:55:07;8.03;;;4.00;;
29954;SDS011;68448;51.188;6.868;2024-02-15T09:57:35;6.60;;;4.40;;
29954;SDS011;68448;51.188;6.868;2024-02-15T10:00:05;6.50;;;4.50;;
29954;SDS011;68448;51.188;6.868;2024-02-15T10:02:34;9.80;;;4.73;;
29954;SDS011;68448;51.188;6.868;2024-02-15T10:05:02;14.97;;;4.53;;
29954;SDS011;68448;51.188;6.868;2024-02-15T10:07:29;8.97;;;4.13;;
29954;SDS011;68448;51.188;6.868;2024-02-15T10:09:58;9.13;;;4.10;;
29954;SDS011;68448;51.188;6.868;2024-02-15T10:12:42;7.80;;;4.10;;
29954;SDS011;68448;51.188;6.868;2024-02-15T10:15:09;18.43;;;6.27;;
29954;SDS011;68448;51.188;6.868;2024-02-15T10:17:36;8.90;;;4.43;;
29954;SDS011;68448;51.188;6.868;2024-02-15T10:20:04;6.50;;;3.80;;
29954;SDS011;68448;51.188;6.868;2024-02-15T10:22:32;7.83;;;3.93;;
29954;SDS011;68448;51.188;6.868;2024-02-15T10:25:11;9.93;;;5.57;;
29954;SDS011;68448;51.188;6.868;2024-02-15T10:27:39;9.67;;;3.90;;
29954;SDS011;68448;51.188;6.868;2024-02-15T10:30:17;6.83;;;3.53;;
29954;SDS011;68448;51.188;6.868;2024-02-15T10:32:45;6.17;;;4.30;;
29954;SDS011;68448;51.188;6.868;2024-02-15T10:35:18;5.30;;;3.77;;
29954;SDS011;68448;51.188;6.868;2024-02-15T10:37:47;7.70;;;3.60;;
29954;SDS011;68448;51.188;6.868;2024-02-15T10:40:16;8.00;;;3.80;;
29954;SDS011;68448;51.188;6.868;2024-02-15T10:42:44;8.53;;;4.20;;
29954;SDS011;68448;51.188;6.868;2024-02-15T10:45:11;11.13;;;5.70;;
29954;SDS011;68448;51.188;6.868;2024-02-15T10:47:40;7.70;;;3.53;;
29954;SDS011;68448;51.188;6.868;2024-02-15T10:50:07;9.27;;;4.27;;
29954;SDS011;68448;51.188;6.868;2024-02-15T10:52:35;20.27;;;4.57;;
29954;SDS011;68448;51.188;6.868;2024-02-15T10:55:04;7.50;;;4.50;;
29954;SDS011;68448;51.188;6.868;2024-02-15T10:57:32;11.90;;;4.00;;
29954;SDS011;68448;51.188;6.868;2024-02-15T10:59:59;9.23;;;3.97;;
29954;SDS011;68448;51.188;6.868;2024-02-15T11:02:27;8.40;;;3.50;;
29954;SDS011;68448;51.188;6.868;2024-02-15T11:04:58;8.40;;;4.23;;
29954;SDS011;68448;51.188;6.868;2024-02-15T11:07:26;11.87;;;4.27;;
29954;SDS011;68448;51.188;6.868;2024-02-15T11:09:58;6.57;;;4.10;;
29954;SDS011;68448;51.188;6.868;2024-02-15T11:12:25;6.83;;;3.17;;
29954;SDS011;68448;51.188;6.868;2024-02-15T11:14:53;8.40;;;3.40;;
29954;SDS011;68448;51.188;6.868;2024-02-15T11:17:44;6.13;;;3.60;;
29954;SDS011;68448;51.188;6.868;2024-02-15T11:20:16;12.00;;;2.83;;
29954;SDS011;68448;51.188;6.868;2024-02-15T11:23:03;7.97;;;2.93;;
29954;SDS011;68448;51.188;6.868;2024-02-15T11:25:31;5.13;;;2.87;;
29954;SDS011;68448;51.188;6.868;2024-02-15T11:27:58;4.90;;;2.80;;
29954;SDS011;68448;51.188;6.868;2024-02-15T11:30:45;7.27;;;3.10;;
29954;SDS011;68448;51.188;6.868;2024-02-15T11:33:23;8.40;;;3.20;;
29954;SDS011;68448;51.188;6.868;2024-02-15T11:36:02;4.20;;;2.97;;
29954;SDS011;68448;51.188;6.868;2024-02-15T11:38:30;8.67;;;2.77;;
29954;SDS011;68448;51.188;6.868;2024-02-15T11:41:04;6.03;;;2.93;;
29954;SDS011;68448;51.188;6.868;2024-02-15T11:43:44;5.60;;;3.10;;
29954;SDS011;68448;51.188;6.868;2024-02-15T11:46:12;7.70;;;3.50;;
29954;SDS011;68448;51.188;6.868;2024-02-15T11:48:40;4.63;;;2.77;;
29954;SDS011;68448;51.188;6.868;2024-02-15T11:51:09;7.60;;;2.90;;
29954;SDS011;68448;51.188;6.868;2024-02-15T11:53:36;5.33;;;2.70;;
29954;SDS011;68448;51.188;6.868;2024-02-15T11:56:03;5.13;;;2.90;;
29954;SDS011;68448;51.188;6.868;2024-02-15T11:58:30;5.80;;;2.83;;
29954;SDS011;68448;51.188;6.868;2024-02-15T12:00:58;5.23;;;2.77;;
29954;SDS011;68448;51.188;6.868;2024-02-15T12:03:25;4.73;;;2.80;;
29954;SDS011;68448;51.188;6.868;2024-02-15T12:05:53;4.73;;;2.80;;
29954;SDS011;68448;51.188;6.868;2024-02-15T12:08:22;4.43;;;2.73;;
29954;SDS011;68448;51.188;6.868;2024-02-15T12:10:56;6.20;;;3.53;;
29954;SDS011;68448;51.188;6.868;2024-02-15T12:13:23;4.30;;;2.40;;
29954;SDS011;68448;51.188;6.868;2024-02-15T12:15:57;11.90;;;2.93;;
29954;SDS011;68448;51.188;6.868;2024-02-15T12:18:24;3.93;;;2.70;;
29954;SDS011;68448;51.188;6.868;2024-02-15T12:20:51;5.73;;;2.20;;
29954;SDS011;68448;51.188;6.868;2024-02-15T12:23:18;5.30;;;3.00;;
29954;SDS011;68448;51.188;6.868;2024-02-15T12:25:51;3.40;;;2.70;;
29954;SDS011;68448;51.188;6.868;2024-02-15T12:28:19;3.90;;;2.10;;
29954;SDS011;68448;51.188;6.868;2024-02-15T12:30:46;5.40;;;2.20;;
29954;SDS011;68448;51.188;6.868;2024-02-15T12:33:13;4.17;;;2.40;;
29954;SDS011;68448;51.188;6.868;2024-02-15T12:35:40;2.40;;;2.00;;
29954;SDS011;68448;51.188;6.868;2024-02-15T12:38:07;7.73;;;2.40;;
29954;SDS011;68448;51.188;6.868;2024-02-15T12:40:36;8.33;;;2.90;;
29954;SDS011;68448;51.188;6.868;2024-02-15T12:43:06;3.43;;;2.30;;
29954;SDS011;68448;51.188;6.868;2024-02-15T12:45:35;5.40;;;2.53;;
29954;SDS011;68448;51.188;6.868;2024-02-15T12:48:03;3.10;;;1.90;;
29954;SDS011;68448;51.188;6.868;2024-02-15T12:50:30;2.80;;;2.23;;
29954;SDS011;68448;51.188;6.868;2024-02-15T12:52:58;5.00;;;2.67;;
29954;SDS011;68448;51.188;6.868;2024-02-15T12:55:25;5.77;;;3.10;;
29954;SDS011;68448;51.188;6.868;2024-02-15T12:57:52;4.10;;;2.20;;
29954;SDS011;68448;51.188;6.868;2024-02-15T13:00:21;6.33;;;3.90;;
29954;SDS011;68448;51.188;6.868;2024-02-15T13:02:49;5.17;;;2.60;;
29954;SDS011;68448;51.188;6.868;2024-02-15T13:05:17;4.20;;;2.77;;
29954;SDS011;68448;51.188;6.868;2024-02-15T13:07:45;6.07;;;2.87;;
29954;SDS011;68448;51.188;6.868;2024-02-15T13:10:12;10.43;;;2.57;;
29954;SDS011;68448;51.188;6.868;2024-02-15T13:12:40;5.57;;;2.90;;
29954;SDS011;68448;51.188;6.868;2024-02-15T13:15:07;3.03;;;2.43;;
29954;SDS011;68448;51.188;6.868;2024-02-15T13:17:36;8.03;;;3.03;;
29954;SDS011;68448;51.188;6.868;2024-02-15T13:20:04;7.40;;;2.47;;
29954;SDS011;68448;51.188;6.868;2024-02-15T13:22:31;9.33;;;3.03;;
29954;SDS011;68448;51.188;6.868;2024-02-15T13:24:58;3.50;;;2.17;;
29954;SDS011;68448;51.188;6.868;2024-02-15T13:27:25;6.50;;;3.63;;
29954;SDS011;68448;51.188;6.868;2024-02-15T13:29:53;3.87;;;2.10;;
29954;SDS011;68448;51.188;6.868;2024-02-15T13:32:20;7.43;;;3.17;;
29954;SDS011;68448;51.188;6.868;2024-02-15T13:34:48;6.57;;;2.67;;
29954;SDS011;68448;51.188;6.868;2024-02-15T13:37:16;3.70;;;2.70;;
29954;SDS011;68448;51.188;6.868;2024-02-15T13:39:43;2.77;;;2.50;;
29954;SDS011;68448;51.188;6.868;2024-02-15T13:42:10;4.10;;;1.70;;
29954;SDS011;68448;51.188;6.868;2024-02-15T13:44:37;5.43;;;2.30;;
29954;SDS011;68448;51.188;6.868;2024-02-15T13:47:04;12.30;;;2.60;;
29954;SDS011;68448;51.188;6.868;2024-02-15T13:49:32;4.83;;;2.20;;
29954;SDS011;68448;51.188;6.868;2024-02-15T13:52:00;7.43;;;4.00;;
29954;SDS011;68448;51.188;6.868;2024-02-15T13:54:27;6.97;;;3.63;;
29954;SDS011;68448;51.188;6.868;2024-02-15T13:56:54;5.23;;;2.00;;
29954;SDS011;68448;51.188;6.868;2024-02-15T13:59:22;3.40;;;2.17;;
29954;SDS011;68448;51.188;6.868;2024-02-15T14:01:49;8.47;;;2.30;;
29954;SDS011;68448;51.188;6.868;2024-02-15T14:04:16;6.20;;;2.70;;
29954;SDS011;68448;51.188;6.868;2024-02-15T14:06:43;3.37;;;1.87;;
29954;SDS011;68448;51.188;6.868;2024-02-15T14:09:11;3.60;;;2.07;;
29954;SDS011;68448;51.188;6.868;2024-02-15T14:11:39;4.50;;;2.03;;
29954;SDS011;68448;51.188;6.868;2024-02-15T14:14:06;3.23;;;2.00;;
29954;SDS011;68448;51.188;6.868;2024-02-15T14:16:33;4.77;;;2.00;;
29954;SDS011;68448;51.188;6.868;2024-02-15T14:19:01;6.30;;;2.10;;
29954;SDS011;68448;51.188;6.868;2024-02-15T14:21:28;4.03;;;2.20;;
29954;SDS011;68448;51.188;6.868;2024-02-15T14:23:55;3.77;;;2.37;;
29954;SDS011;68448;51.188;6.868;2024-02-15T14:26:24;3.37;;;2.20;;
29954;SDS011;68448;51.188;6.868;2024-02-15T14:28:51;2.40;;;1.57;;
29954;SDS011;68448;51.188;6.868;2024-02-15T14:31:18;3.70;;;2.10;;
29954;SDS011;68448;51.188;6.868;2024-02-15T14:33:45;2.80;;;1.93;;
29954;SDS011;68448;51.188;6.868;2024-02-15T14:36:12;5.20;;;2.37;;
29954;SDS011;68448;51.188;6.868;2024-02-15T14:38:39;3.90;;;2.37;;
29954;SDS011;68448;51.188;6.868;2024-02-15T14:41:07;3.93;;;2.13;;
29954;SDS011;68448;51.188;6.868;2024-02-15T14:43:37;3.97;;;2.20;;
29954;SDS011;68448;51.188;6.868;2024-02-15T14:46:04;9.77;;;2.40;;